^^
Paulen-Weather Station Historical Data
Daily Summary for February 04, 2022 Units:  Metric    English   Both
Daily Weekly Monthly Yearly Custom
  High: Low: Average:
Temperature: 7 °C 6 °C 6.3 °C
Dew Point: 6 °C 6 °C 6 °C
Humidity: 100% 98% 99%
Wind Speed: 32km/h 21km/h 26.5km/h
Wind Gust: 25km/h - -
Wind- - NNE
Pressure: 998.21 hPa 996.14 hPa -
Precipitation: 0 mm    
Historical Graphs
 
 
Tabular Data for February 04, 2022
Time Temperature Dew Point Pressure Wind Wind Speed Wind Gust Humidity Rainfall Rate (Hourly) solar
00:04 6 °C 6 °C 998.21 hPa NNE 26 km/h 18 km/h 100% 0 mm 0 W/m2
00:09 6 °C 6 °C 998.14 hPa NNE 23 km/h 18 km/h 99% 0 mm 0 W/m2
00:14 6 °C 6 °C 998.04 hPa NNE 26 km/h 18 km/h 99% 0 mm 0 W/m2
00:19 6 °C 6 °C 997.9 hPa NNE 25 km/h 20 km/h 99% 0 mm 0 W/m2
00:24 6 °C 6 °C 997.8 hPa N 28 km/h 20 km/h 99% 0 mm 0 W/m2
00:29 6 °C 6 °C 997.66 hPa NNE 28 km/h 23 km/h 99% 0 mm 0 W/m2
00:34 6 °C 6 °C 997.66 hPa N 21 km/h 18 km/h 99% 0 mm 0 W/m2
00:39 6 °C 6 °C 997.63 hPa NNE 27 km/h 20 km/h 99% 0 mm 0 W/m2
00:44 6 °C 6 °C 997.49 hPa N 25 km/h 19 km/h 99% 0 mm 0 W/m2
00:49 6 °C 6 °C 997.33 hPa NNE 22 km/h 17 km/h 99% 0 mm 0 W/m2
00:54 6 °C 6 °C 997.09 hPa NNE 22 km/h 18 km/h 99% 0 mm 0 W/m2
00:59 6 °C 6 °C 997.05 hPa NNE 24 km/h 19 km/h 99% 0 mm 0 W/m2
01:04 6 °C 6 °C 997.05 hPa NNE 24 km/h 20 km/h 99% 0 mm 0 W/m2
01:09 6 °C 6 °C 996.99 hPa NE 29 km/h 24 km/h 99% 0 mm 0 W/m2
01:14 6 °C 6 °C 996.82 hPa NNE 28 km/h 21 km/h 99% 0 mm 0 W/m2
01:19 7 °C 6 °C 996.68 hPa NNE 25 km/h 22 km/h 99% 0 mm 0 W/m2
01:24 7 °C 6 °C 996.55 hPa NNE 29 km/h 25 km/h 99% 0 mm 0 W/m2
01:29 7 °C 6 °C 996.41 hPa NNE 29 km/h 25 km/h 99% 0 mm 0 W/m2
01:34 7 °C 6 °C 996.38 hPa NNE 30 km/h 22 km/h 99% 0 mm 0 W/m2
01:39 7 °C 6 °C 996.34 hPa NNE 32 km/h 22 km/h 99% 0 mm 0 W/m2
01:44 7 °C 6 °C 996.28 hPa NE 31 km/h 24 km/h 99% 0 mm 0 W/m2
01:49 7 °C 6 °C 996.21 hPa NNE 29 km/h 24 km/h 99% 0 mm 0 W/m2
01:54 7 °C 6 °C 996.14 hPa NNE 26 km/h 23 km/h 98% 0 mm 0 W/m2
Compliments of Weather Underground - 2 mb